createdAt,value
2022-09-14T00:01:27.376Z,1.90
2022-09-14T00:04:03.820Z,2.30
2022-09-14T00:06:33.320Z,2.63
2022-09-14T00:09:01.683Z,2.15
2022-09-14T00:11:31.186Z,1.88
2022-09-14T00:13:58.868Z,2.40
2022-09-14T00:16:31.554Z,2.15
2022-09-14T00:19:07.875Z,2.58
2022-09-14T00:21:36.724Z,2.75
2022-09-14T00:24:04.192Z,2.03
2022-09-14T00:26:30.908Z,3.03
2022-09-14T00:29:04.485Z,2.83
2022-09-14T00:31:34.662Z,2.65
2022-09-14T00:37:06.414Z,2.20
2022-09-14T00:42:01.979Z,2.38
2022-09-14T00:44:28.693Z,2.10
2022-09-14T00:46:59.597Z,1.67
2022-09-14T00:49:43.050Z,2.00
2022-09-14T00:52:23.331Z,1.80
2022-09-14T00:54:58.243Z,2.15
2022-09-14T00:57:28.411Z,1.63
2022-09-14T00:59:58.096Z,1.48
2022-09-14T01:02:26.249Z,1.77
2022-09-14T01:04:53.184Z,2.25
2022-09-14T01:07:42.371Z,1.70
2022-09-14T01:10:15.212Z,1.95
2022-09-14T01:13:00.703Z,1.52
2022-09-14T01:15:48.734Z,1.50
2022-09-14T01:18:29.472Z,1.67
2022-09-14T01:21:12.471Z,1.23
2022-09-14T01:24:19.197Z,1.85
2022-09-14T01:26:56.680Z,1.55
2022-09-14T01:29:46.809Z,1.45
2022-09-14T01:32:30.076Z,2.22
2022-09-14T01:35:06.294Z,1.20
2022-09-14T01:37:38.143Z,1.55
2022-09-14T01:40:13.243Z,1.95
2022-09-14T01:42:43.190Z,2.35
2022-09-14T01:45:16.498Z,1.60
2022-09-14T01:47:45.443Z,1.70
2022-09-14T01:50:18.404Z,1.60
2022-09-14T01:52:53.307Z,1.77
2022-09-14T01:55:28.790Z,1.70
2022-09-14T01:58:11.788Z,1.80
2022-09-14T02:00:42.595Z,2.00
2022-09-14T02:03:14.706Z,2.03
2022-09-14T02:06:00.666Z,1.98
2022-09-14T02:08:30.591Z,2.55
2022-09-14T02:10:58.123Z,2.95
2022-09-14T02:13:27.932Z,2.35
2022-09-14T02:15:54.731Z,2.22
2022-09-14T02:18:23.876Z,2.45
2022-09-14T02:20:58.190Z,2.35
2022-09-14T02:23:27.911Z,2.25
2022-09-14T02:25:54.899Z,1.60
2022-09-14T02:28:21.895Z,1.65
2022-09-14T02:31:18.933Z,1.40
2022-09-14T02:34:13.701Z,1.70
2022-09-14T02:36:52.519Z,1.60
2022-09-14T02:39:24.969Z,1.50
2022-09-14T02:42:34.799Z,1.20
2022-09-14T02:45:14.072Z,1.67
2022-09-14T02:47:57.388Z,1.48
2022-09-14T02:50:34.837Z,1.88
2022-09-14T02:53:09.368Z,1.85
2022-09-14T02:55:38.529Z,1.65
2022-09-14T03:00:41.560Z,1.50
2022-09-14T03:03:12.533Z,1.98
2022-09-14T03:05:39.883Z,2.47
2022-09-14T03:08:10.905Z,1.65
2022-09-14T03:10:42.884Z,2.53
2022-09-14T03:13:09.639Z,2.38
2022-09-14T03:18:09.138Z,2.40
2022-09-14T03:20:37.863Z,1.77
2022-09-14T03:23:09.109Z,2.50
2022-09-14T03:25:40.069Z,2.22
2022-09-14T03:28:07.227Z,2.05
2022-09-14T03:30:34.592Z,2.20
2022-09-14T03:33:01.387Z,2.03
2022-09-14T03:35:31.297Z,2.00
2022-09-14T03:38:03.117Z,2.30
2022-09-14T03:40:30.333Z,2.08
2022-09-14T03:42:57.380Z,1.95
2022-09-14T03:45:26.092Z,2.15
2022-09-14T03:47:52.830Z,2.42
2022-09-14T03:50:19.981Z,1.90
2022-09-14T03:52:46.782Z,2.30
2022-09-14T03:57:42.445Z,2.17
2022-09-14T04:00:10.084Z,2.00
2022-09-14T04:02:40.430Z,1.77
2022-09-14T04:05:07.702Z,1.85
2022-09-14T04:07:34.598Z,2.17
2022-09-14T04:10:01.234Z,2.03
2022-09-14T04:12:33.626Z,2.13
2022-09-14T04:15:02.600Z,2.70
2022-09-14T04:17:31.941Z,2.15
2022-09-14T04:19:58.641Z,2.22
2022-09-14T04:22:25.418Z,1.85
2022-09-14T04:24:53.592Z,2.47
2022-09-14T04:27:20.240Z,2.13
2022-09-14T04:29:53.793Z,2.92
2022-09-14T04:32:20.839Z,2.55
2022-09-14T04:34:49.119Z,2.78
2022-09-14T04:37:15.989Z,3.37
2022-09-14T04:39:42.852Z,2.78
2022-09-14T04:42:09.660Z,3.00
2022-09-14T04:44:36.358Z,3.00
2022-09-14T04:47:03.357Z,2.90
2022-09-14T04:49:32.126Z,3.20
2022-09-14T04:51:58.787Z,2.78
2022-09-14T04:54:25.451Z,2.17
2022-09-14T04:56:52.135Z,2.67
2022-09-14T04:59:18.860Z,2.75
2022-09-14T05:01:48.225Z,2.80
2022-09-14T05:04:15.638Z,2.75
2022-09-14T05:06:44.429Z,2.90
2022-09-14T05:09:15.599Z,2.88
2022-09-14T05:11:42.867Z,2.75
2022-09-14T05:14:13.374Z,2.80
2022-09-14T05:16:41.524Z,3.25
2022-09-14T05:19:11.027Z,3.10
2022-09-14T05:21:38.304Z,2.50
2022-09-14T05:24:12.358Z,3.05
2022-09-14T05:26:45.412Z,2.50
2022-09-14T05:29:14.053Z,3.15
2022-09-14T05:31:41.027Z,2.70
2022-09-14T05:34:09.643Z,3.13
2022-09-14T05:36:37.590Z,2.13
2022-09-14T05:39:10.248Z,3.00
2022-09-14T05:41:39.179Z,3.03
2022-09-14T05:44:11.203Z,2.55
2022-09-14T05:46:38.091Z,2.50
2022-09-14T05:49:04.945Z,4.35
2022-09-14T05:51:33.853Z,2.65
2022-09-14T05:54:00.965Z,2.05
2022-09-14T05:56:29.562Z,2.50
2022-09-14T05:58:56.527Z,2.85
2022-09-14T06:01:28.632Z,2.80
2022-09-14T06:04:00.461Z,2.60
2022-09-14T06:06:33.499Z,3.08
2022-09-14T06:09:00.466Z,3.38
2022-09-14T06:11:36.416Z,2.47
2022-09-14T06:14:03.803Z,2.72
2022-09-14T06:16:30.676Z,2.92
2022-09-14T06:18:58.405Z,2.78
2022-09-14T06:21:33.727Z,3.15
2022-09-14T06:24:00.691Z,3.75
2022-09-14T06:26:29.634Z,3.78
2022-09-14T06:28:56.493Z,2.67
2022-09-14T06:31:25.163Z,2.72
2022-09-14T06:33:52.747Z,2.72
2022-09-14T06:36:26.462Z,2.65
2022-09-14T06:38:53.979Z,3.50
2022-09-14T06:41:26.864Z,2.63
2022-09-14T06:43:56.783Z,3.22
2022-09-14T06:46:31.409Z,2.90
2022-09-14T06:49:12.519Z,2.65
2022-09-14T06:51:41.570Z,3.17
2022-09-14T06:54:12.667Z,2.95
2022-09-14T06:56:40.946Z,3.28
2022-09-14T06:59:09.177Z,4.03
2022-09-14T07:01:36.222Z,3.27
2022-09-14T07:04:05.836Z,3.15
2022-09-14T07:06:39.179Z,3.30
2022-09-14T07:09:08.568Z,4.43
2022-09-14T07:11:40.634Z,4.35
2022-09-14T07:14:10.342Z,4.30
2022-09-14T07:16:38.536Z,5.32
2022-09-14T07:19:13.348Z,4.47
2022-09-14T07:21:40.602Z,3.47
2022-09-14T07:24:07.504Z,3.72
2022-09-14T07:26:42.383Z,3.83
2022-09-14T07:29:14.819Z,4.45
2022-09-14T07:31:51.933Z,4.75
2022-09-14T07:34:19.140Z,4.70
2022-09-14T07:36:46.194Z,4.20
2022-09-14T07:39:15.166Z,3.92
2022-09-14T07:41:43.418Z,4.80
2022-09-14T07:44:14.428Z,5.27
2022-09-14T07:46:43.296Z,4.35
2022-09-14T07:49:13.250Z,4.53
2022-09-14T07:51:43.164Z,4.68
2022-09-14T07:54:15.538Z,4.60
2022-09-14T07:56:43.481Z,4.60
2022-09-14T07:59:34.371Z,4.35
2022-09-14T08:01:58.606Z,4.47
2022-09-14T08:04:25.866Z,4.53
2022-09-14T08:06:52.507Z,4.93
2022-09-14T08:09:21.467Z,4.68
2022-09-14T08:11:51.082Z,5.60
2022-09-14T08:14:17.703Z,4.25
2022-09-14T08:16:46.811Z,4.75
2022-09-14T08:21:47.319Z,5.22
2022-09-14T08:24:20.104Z,5.60
2022-09-14T08:26:48.514Z,4.75
2022-09-14T08:29:16.848Z,5.90
2022-09-14T08:31:45.880Z,5.25
2022-09-14T08:36:41.075Z,5.63
2022-09-14T08:39:10.152Z,5.95
2022-09-14T08:44:43.565Z,5.60
2022-09-14T08:47:13.566Z,5.80
2022-09-14T08:49:47.536Z,6.10
2022-09-14T08:52:32.806Z,5.35
2022-09-14T08:55:01.718Z,6.18
2022-09-14T08:57:31.734Z,5.43
2022-09-14T09:00:04.602Z,5.82
2022-09-14T09:02:56.617Z,6.35
2022-09-14T09:05:48.558Z,5.90
2022-09-14T09:08:33.448Z,5.32
2022-09-14T09:11:01.510Z,6.13
2022-09-14T09:13:31.767Z,5.70
2022-09-14T09:16:03.691Z,5.55
2022-09-14T09:18:50.558Z,5.50
2022-09-14T09:21:29.541Z,6.32
2022-09-14T09:26:32.447Z,6.93
2022-09-14T09:29:03.326Z,6.63
2022-09-14T09:31:56.431Z,6.55
2022-09-14T09:34:52.545Z,6.35
2022-09-14T09:37:30.825Z,6.82
2022-09-14T09:39:57.589Z,6.97
2022-09-14T09:42:26.941Z,6.75
2022-09-14T09:45:00.596Z,7.45
2022-09-14T09:47:50.759Z,6.72
2022-09-14T09:50:22.013Z,6.63
2022-09-14T09:52:57.647Z,6.45
2022-09-14T09:55:27.465Z,5.90
2022-09-14T09:57:57.314Z,5.78
2022-09-14T10:00:26.754Z,5.78
2022-09-14T10:02:54.675Z,5.53
2022-09-14T10:05:29.108Z,5.90
2022-09-14T10:08:11.285Z,6.72
2022-09-14T10:10:42.964Z,5.78
2022-09-14T10:13:26.074Z,5.28
2022-09-14T10:15:54.270Z,6.68
2022-09-14T10:18:22.377Z,6.38
2022-09-14T10:20:51.946Z,6.25
2022-09-14T10:23:18.604Z,7.15
2022-09-14T10:26:13.453Z,6.95
2022-09-14T10:28:44.204Z,6.78
2022-09-14T10:31:19.796Z,7.18
2022-09-14T10:33:56.439Z,6.10
2022-09-14T10:36:36.152Z,5.95
2022-09-14T10:39:17.248Z,5.05
2022-09-14T10:41:52.995Z,5.43
2022-09-14T10:44:50.322Z,5.50
2022-09-14T10:47:37.068Z,4.63
2022-09-14T10:50:26.938Z,4.30
2022-09-14T10:53:19.962Z,4.57
2022-09-14T10:56:01.749Z,4.55
2022-09-14T10:58:42.085Z,5.38
2022-09-14T11:01:08.764Z,4.93
2022-09-14T11:04:00.168Z,4.63
2022-09-14T11:06:26.824Z,4.05
2022-09-14T11:09:00.860Z,4.13
2022-09-14T11:11:37.290Z,3.80
2022-09-14T11:14:12.995Z,4.03
2022-09-14T11:17:36.964Z,3.33
2022-09-14T11:20:26.859Z,3.67
2022-09-14T11:23:28.032Z,4.22
2022-09-14T11:25:57.767Z,4.03
2022-09-14T11:28:39.178Z,4.20
2022-09-14T11:31:12.441Z,3.65
2022-09-14T11:33:46.620Z,4.10
2022-09-14T11:36:21.203Z,3.70
2022-09-14T11:39:01.390Z,3.92
2022-09-14T11:41:41.812Z,4.10
2022-09-14T11:44:32.499Z,3.58
2022-09-14T11:47:06.458Z,4.10
2022-09-14T11:50:03.957Z,3.28
2022-09-14T11:52:32.597Z,4.50
2022-09-14T11:55:00.788Z,3.47
2022-09-14T11:57:31.615Z,3.70
2022-09-14T12:00:23.705Z,3.95
2022-09-14T12:03:01.741Z,3.15
2022-09-14T12:05:33.766Z,3.97
2022-09-14T12:08:32.206Z,4.18
2022-09-14T12:11:26.714Z,3.60
2022-09-14T12:14:22.184Z,3.10
2022-09-14T12:20:31.935Z,3.88
2022-09-14T12:23:21.500Z,3.28
2022-09-14T12:26:00.466Z,3.78
2022-09-14T12:28:36.591Z,4.20
2022-09-14T12:31:03.328Z,4.63
2022-09-14T12:33:32.744Z,4.50
2022-09-14T12:36:00.031Z,3.72
2022-09-14T12:38:32.028Z,4.20
2022-09-14T12:41:10.674Z,3.65
2022-09-14T12:43:37.672Z,3.70
2022-09-14T12:46:09.227Z,4.88
2022-09-14T12:48:48.167Z,3.83
2022-09-14T12:51:32.827Z,3.60
2022-09-14T12:54:11.766Z,3.85
2022-09-14T12:57:17.412Z,3.92
2022-09-14T12:59:56.132Z,2.25
2022-09-14T13:02:31.807Z,3.25
2022-09-14T13:05:00.896Z,2.72
2022-09-14T13:07:36.078Z,2.05
2022-09-14T13:10:04.807Z,1.85
2022-09-14T13:12:41.726Z,2.05
2022-09-14T13:15:31.826Z,2.10
2022-09-14T13:18:05.945Z,1.90
2022-09-14T13:20:35.893Z,1.90
2022-09-14T13:23:03.455Z,2.42
2022-09-14T13:25:36.839Z,1.42
2022-09-14T13:28:06.383Z,1.45
2022-09-14T13:30:37.381Z,1.52
2022-09-14T13:33:08.814Z,1.42
2022-09-14T13:35:39.195Z,1.85
2022-09-14T13:38:17.779Z,1.73
2022-09-14T13:40:44.863Z,1.35
2022-09-14T13:43:13.825Z,1.20
2022-09-14T13:45:40.925Z,1.17
2022-09-14T13:48:13.393Z,1.73
2022-09-14T13:50:45.274Z,1.50
2022-09-14T13:53:36.951Z,1.20
2022-09-14T13:56:28.205Z,1.13
2022-09-14T13:59:07.070Z,1.05
2022-09-14T14:01:40.992Z,1.75
2022-09-14T14:04:24.403Z,0.82
2022-09-14T14:07:15.672Z,0.90
2022-09-14T14:09:51.673Z,1.08
2022-09-14T14:12:28.326Z,1.92
2022-09-14T14:15:04.490Z,1.20
2022-09-14T14:17:34.489Z,1.38
2022-09-14T14:20:26.866Z,1.08
2022-09-14T14:22:57.493Z,1.40
2022-09-14T14:25:45.499Z,1.25
2022-09-14T14:28:39.670Z,1.50
2022-09-14T14:31:09.918Z,1.52
2022-09-14T14:33:47.756Z,1.80
2022-09-14T14:36:15.621Z,1.20
2022-09-14T14:38:44.821Z,1.27
2022-09-14T14:41:19.646Z,0.90
2022-09-14T14:43:46.986Z,1.50
2022-09-14T14:46:16.674Z,1.42
2022-09-14T14:48:43.451Z,1.30
2022-09-14T14:51:16.352Z,1.23
2022-09-14T14:53:43.361Z,1.17
2022-09-14T14:56:12.077Z,1.42
2022-09-14T14:58:46.472Z,1.42
2022-09-14T15:01:13.817Z,1.10
2022-09-14T15:03:40.584Z,1.80
2022-09-14T15:06:23.887Z,1.38
2022-09-14T15:08:57.064Z,1.50
2022-09-14T15:11:23.898Z,1.38
2022-09-14T15:13:53.696Z,1.02
2022-09-14T15:16:20.474Z,1.40
2022-09-14T15:18:49.358Z,1.33
2022-09-14T15:21:18.576Z,1.45
2022-09-14T15:23:45.241Z,1.73
2022-09-14T15:26:11.909Z,1.30
2022-09-14T15:28:38.646Z,1.27
2022-09-14T15:31:08.519Z,1.10
2022-09-14T15:33:35.191Z,1.92
2022-09-14T15:36:03.157Z,1.58
2022-09-14T15:38:29.965Z,0.80
2022-09-14T15:40:56.691Z,1.20
2022-09-14T15:43:25.967Z,1.10
2022-09-14T15:45:52.741Z,1.38
2022-09-14T15:48:19.816Z,1.27
2022-09-14T15:50:48.155Z,1.23
2022-09-14T15:53:16.266Z,0.98
2022-09-14T15:55:44.524Z,1.20
2022-09-14T15:58:11.789Z,1.10
2022-09-14T16:00:45.199Z,1.17
2022-09-14T16:03:12.016Z,0.98
2022-09-14T16:05:41.507Z,1.10
2022-09-14T16:08:08.185Z,1.02
2022-09-14T16:10:37.162Z,1.50
2022-09-14T16:13:03.895Z,1.17
2022-09-14T16:15:30.584Z,1.33
2022-09-14T16:17:59.533Z,1.67
2022-09-14T16:20:26.244Z,0.85
2022-09-14T16:22:52.924Z,1.15
2022-09-14T16:25:21.932Z,1.27
2022-09-14T16:27:51.093Z,0.95
2022-09-14T16:30:20.131Z,1.10
2022-09-14T16:32:49.104Z,1.17
2022-09-14T16:35:15.830Z,1.00
2022-09-14T16:37:44.840Z,1.17
2022-09-14T16:40:12.962Z,1.40
2022-09-14T16:42:42.165Z,0.90
2022-09-14T16:45:11.648Z,0.80
2022-09-14T16:47:40.773Z,1.30
2022-09-14T16:50:10.110Z,0.90
2022-09-14T16:52:36.775Z,1.20
2022-09-14T16:55:03.679Z,0.93
2022-09-14T16:57:30.482Z,1.17
2022-09-14T16:59:59.424Z,1.17
2022-09-14T17:04:57.954Z,1.10
2022-09-14T17:07:25.031Z,1.10
2022-09-14T17:09:56.454Z,0.88
2022-09-14T17:12:23.185Z,0.90
2022-09-14T17:14:52.545Z,1.05
2022-09-14T17:17:23.806Z,1.20
2022-09-14T17:19:52.934Z,1.48
2022-09-14T17:22:19.848Z,1.40
2022-09-14T17:24:46.562Z,1.30
2022-09-14T17:27:13.424Z,1.38
2022-09-14T17:29:48.538Z,1.58
2022-09-14T17:32:19.347Z,2.88
2022-09-14T17:34:46.826Z,1.75
2022-09-14T17:37:13.560Z,2.05
2022-09-14T17:39:40.578Z,2.00
2022-09-14T17:42:10.144Z,2.17
2022-09-14T17:44:38.976Z,1.88
2022-09-14T17:47:10.513Z,2.30
2022-09-14T17:49:37.292Z,1.58
2022-09-14T17:52:06.434Z,1.73
2022-09-14T17:54:33.462Z,2.67
2022-09-14T17:57:02.639Z,1.90
2022-09-14T17:59:35.541Z,3.85
2022-09-14T18:02:02.344Z,3.17
2022-09-14T18:04:33.452Z,2.35
2022-09-14T18:07:04.159Z,2.05
2022-09-14T18:09:33.217Z,2.47
2022-09-14T18:14:26.653Z,2.13
2022-09-14T18:16:55.797Z,2.50
2022-09-14T18:19:22.529Z,2.60
2022-09-14T18:21:55.228Z,2.03
2022-09-14T18:24:24.382Z,2.88
2022-09-14T18:29:21.496Z,2.80
2022-09-14T18:31:48.338Z,2.55
2022-09-14T18:36:44.099Z,2.60
2022-09-14T18:39:12.501Z,2.55
2022-09-14T18:41:39.281Z,2.97
2022-09-14T18:44:06.199Z,3.13
2022-09-14T18:46:35.240Z,3.60
2022-09-14T18:49:02.423Z,6.28
2022-09-14T18:51:32.126Z,2.97
2022-09-14T18:54:05.425Z,3.20
2022-09-14T18:56:36.139Z,3.33
2022-09-14T18:59:05.252Z,3.47
2022-09-14T19:04:07.816Z,3.00
2022-09-14T19:06:36.198Z,3.00
2022-09-14T19:09:06.647Z,4.05
2022-09-14T19:11:45.101Z,3.22
2022-09-14T19:14:12.992Z,3.05
2022-09-14T19:16:40.899Z,3.25
2022-09-14T19:19:12.144Z,2.83
2022-09-14T19:24:08.194Z,3.20
2022-09-14T19:26:45.196Z,2.63
2022-09-14T19:29:16.972Z,2.78
2022-09-14T19:31:44.459Z,3.45
2022-09-14T19:34:14.204Z,3.20
2022-09-14T19:36:44.592Z,2.92
2022-09-14T19:39:21.069Z,2.70
2022-09-14T19:41:50.939Z,2.50
2022-09-14T19:44:22.298Z,2.55
2022-09-14T19:46:49.637Z,3.40
2022-09-14T19:49:20.671Z,4.00
2022-09-14T19:51:50.707Z,4.38
2022-09-14T19:54:20.008Z,3.67
2022-09-14T19:56:54.753Z,3.33
2022-09-14T19:59:29.670Z,3.33
2022-09-14T20:01:56.464Z,3.72
2022-09-14T20:04:25.772Z,3.00
2022-09-14T20:06:52.507Z,2.70
2022-09-14T20:09:21.568Z,2.90
2022-09-14T20:14:23.506Z,2.65
2022-09-14T20:16:53.371Z,2.90
2022-09-14T20:19:22.409Z,2.42
2022-09-14T20:24:25.696Z,2.60
2022-09-14T20:26:55.053Z,3.20
2022-09-14T20:29:23.163Z,4.05
2022-09-14T20:31:51.500Z,2.50
2022-09-14T20:34:20.665Z,3.03
2022-09-14T20:36:51.994Z,2.85
2022-09-14T20:39:19.958Z,2.67
2022-09-14T20:41:47.131Z,2.88
2022-09-14T20:44:14.239Z,2.47
2022-09-14T20:46:43.465Z,2.50
2022-09-14T20:49:13.223Z,2.92
2022-09-14T20:51:41.201Z,3.20
2022-09-14T20:54:11.025Z,2.60
2022-09-14T20:56:40.522Z,2.63
2022-09-14T20:59:12.751Z,1.75
2022-09-14T21:01:43.292Z,2.22
2022-09-14T21:04:12.685Z,2.38
2022-09-14T21:06:41.941Z,2.05
2022-09-14T21:09:14.261Z,2.15
2022-09-14T21:11:42.125Z,2.58
2022-09-14T21:14:09.038Z,3.25
2022-09-14T21:16:37.981Z,3.05
2022-09-14T21:19:07.172Z,2.45
2022-09-14T21:21:34.701Z,2.38
2022-09-14T21:24:01.759Z,2.88
2022-09-14T21:26:30.065Z,1.90
2022-09-14T21:29:06.388Z,2.28
2022-09-14T21:31:41.896Z,1.88
2022-09-14T21:34:11.766Z,1.40
2022-09-14T21:36:46.248Z,1.48
2022-09-14T21:39:15.839Z,2.60
2022-09-14T21:41:44.777Z,1.95
2022-09-14T21:44:12.785Z,2.35
2022-09-14T21:46:39.555Z,1.95
2022-09-14T21:49:12.778Z,1.35
2022-09-14T21:51:41.770Z,1.42
2022-09-14T21:54:13.192Z,1.10
2022-09-14T21:56:42.050Z,1.10
2022-09-14T21:59:12.898Z,1.13
2022-09-14T22:01:39.935Z,0.80
2022-09-14T22:04:12.678Z,0.85
2022-09-14T22:06:40.326Z,0.80
2022-09-14T22:09:59.798Z,0.75
2022-09-14T22:12:26.570Z,0.85
2022-09-14T22:14:53.220Z,0.60
2022-09-14T22:17:22.255Z,0.65
2022-09-14T22:22:15.980Z,1.75
2022-09-14T22:24:42.993Z,1.58
2022-09-14T22:27:10.667Z,1.60
2022-09-14T22:29:41.148Z,1.42
2022-09-14T22:32:10.278Z,1.52
2022-09-14T22:34:37.286Z,1.40
2022-09-14T22:37:04.001Z,1.90
2022-09-14T22:39:31.167Z,2.35
2022-09-14T22:41:57.807Z,2.00
2022-09-14T22:44:24.548Z,2.47
2022-09-14T22:46:51.244Z,2.42
2022-09-14T22:49:20.354Z,2.25
2022-09-14T22:51:47.643Z,2.40
2022-09-14T22:54:16.646Z,1.83
2022-09-14T22:59:10.642Z,2.05
2022-09-14T23:01:39.886Z,2.28
2022-09-14T23:04:09.988Z,1.73
2022-09-14T23:06:44.193Z,1.90
2022-09-14T23:09:17.158Z,1.77
2022-09-14T23:11:46.291Z,1.25
2022-09-14T23:14:16.330Z,1.00
2022-09-14T23:16:45.670Z,1.10
2022-09-14T23:19:15.482Z,1.17
2022-09-14T23:21:42.180Z,0.98
2022-09-14T23:24:11.463Z,1.35
2022-09-14T23:26:38.339Z,1.20
2022-09-14T23:29:16.202Z,2.40
2022-09-14T23:31:43.013Z,2.03
2022-09-14T23:34:09.832Z,2.08
2022-09-14T23:36:36.811Z,2.28
2022-09-14T23:39:05.840Z,2.45
2022-09-14T23:44:03.382Z,2.50
2022-09-14T23:46:35.002Z,2.25
2022-09-14T23:49:01.704Z,2.75
2022-09-14T23:51:31.125Z,2.30
2022-09-14T23:53:59.823Z,3.08
2022-09-14T23:56:29.888Z,2.42
2022-09-14T23:58:56.939Z,2.58
